Ogema, Wisconsin
Current Conditions -  °F | °C
As of 9:55 PM on Saturday 20 Dec 2014 (Local Time) from KPBH Reporting Station
Haze Haze  
Wind Chill: 20°   Ceiling: 800
Heat Index: 28°   Visibility: 5mi
Dew Point: 26°   Wind: 7mph
Humidity: 94%   Direction: 180°S
Pressure: 30.11"   Gusts: NA
Location:  45.44°N, 90.3°W
Report Text: KPBH 210355Z AUTO 18006KT 5SM BR OVC008 M02/M03 A3011 RMK AO2 T10251033
Loading
Personal Weather Stations






























Interactive Weather Map New forecast layout! Learn more

10-Day Weather Forecast

Advertisements
Track Severe Weather on mobile